Time;durP1;ratioP1;P1;durP2;ratioP2;P2;SDS_P1;SDS_P2;PMS_P1;PMS_P2;Temp;Humidity;BMP_temperature;BMP_pressure;BME280_temperature;BME280_humidity;BME280_pressure;Samples;Min_cycle;Max_cycle;Signal;HPM_P1;HPM_P2
2024/03/25 05:00:31;;;;;;;1.10;1.00;;;5.10;97.30;;;;;;6095248;23;21084;31
2024/03/25 05:02:57;;;;;;;1.53;1.23;;;5.10;97.30;;;;;;4953793;28;20971;-90
2024/03/25 05:05:24;;;;;;;1.13;1.03;;;5.00;97.30;;;;;;4972303;28;20468;-89
2024/03/25 05:07:49;;;;;;;2.33;2.13;;;5.00;97.30;;;;;;4973875;28;20269;-87
2024/03/25 05:10:15;;;;;;;1.00;0.90;;;5.00;97.30;;;;;;4973531;28;20927;-89
2024/03/25 05:12:40;;;;;;;1.10;1.00;;;5.00;97.30;;;;;;4973129;28;20222;-90
2024/03/25 05:15:06;;;;;;;1.00;0.90;;;5.00;97.30;;;;;;4973080;28;20602;-92
2024/03/25 05:17:31;;;;;;;0.90;0.80;;;5.00;97.30;;;;;;4973003;28;20244;-91
2024/03/25 05:19:57;;;;;;;1.43;1.33;;;5.00;97.30;;;;;;4974210;28;20182;-90
2024/03/25 05:22:22;;;;;;;1.00;0.90;;;5.00;97.30;;;;;;4973974;28;20695;-90
2024/03/25 05:24:48;;;;;;;1.10;1.00;;;5.00;97.30;;;;;;4973311;28;20280;-89
2024/03/25 05:27:13;;;;;;;1.30;1.20;;;5.00;97.30;;;;;;4968721;28;20179;-89
2024/03/25 05:29:39;;;;;;;1.20;1.10;;;5.00;97.30;;;;;;4972166;28;20186;-91
2024/03/25 05:32:05;;;;;;;1.27;1.17;;;5.00;97.30;;;;;;4971687;28;20195;-89
2024/03/25 05:34:31;;;;;;;1.00;0.90;;;5.00;97.30;;;;;;4957273;28;20186;-89
2024/03/25 05:36:57;;;;;;;0.90;0.80;;;5.00;97.30;;;;;;4973334;28;20473;-89
2024/03/25 05:39:22;;;;;;;1.07;1.00;;;5.00;97.30;;;;;;4973935;28;20801;-89
2024/03/25 05:41:48;;;;;;;1.00;0.90;;;5.00;97.30;;;;;;4973587;28;20203;-90
2024/03/25 05:44:14;;;;;;;1.00;0.90;;;5.10;97.30;;;;;;4973410;28;20183;-87
2024/03/25 05:46:40;;;;;;;1.00;0.90;;;5.10;97.30;;;;;;4973481;28;20473;-89
2024/03/25 05:49:06;;;;;;;1.33;1.23;;;5.10;97.30;;;;;;4973956;28;20437;-90
2024/03/25 05:51:35;;;;;;;1.00;0.90;;;5.10;97.30;;;;;;4973449;28;20867;-91
2024/03/25 05:54:01;;;;;;;1.43;1.20;;;5.20;97.30;;;;;;4974420;28;20179;-88
2024/03/25 05:56:30;;;;;;;0.87;0.77;;;5.20;97.30;;;;;;4972418;28;20434;-89
2024/03/25 05:58:57;;;;;;;1.10;1.00;;;5.20;97.30;;;;;;4971966;28;20434;-89
2024/03/25 06:01:23;;;;;;;0.90;0.80;;;5.20;97.30;;;;;;4974059;28;20478;-88
2024/03/25 06:03:48;;;;;;;1.00;0.90;;;5.20;97.30;;;;;;4974711;28;20480;-91
2024/03/25 06:06:14;;;;;;;1.10;1.00;;;5.20;97.30;;;;;;4972818;28;20974;-88
2024/03/25 06:08:39;;;;;;;0.90;0.80;;;5.30;97.30;;;;;;4973682;28;20183;-89
2024/03/25 06:11:05;;;;;;;0.90;0.80;;;5.30;97.30;;;;;;4973892;28;20210;-90
2024/03/25 06:13:30;;;;;;;1.00;0.90;;;5.30;97.30;;;;;;4976498;28;20213;-84
2024/03/25 06:15:56;;;;;;;1.10;1.00;;;5.30;97.30;;;;;;4971802;28;20667;-87
2024/03/25 06:18:21;;;;;;;0.83;0.73;;;5.40;97.30;;;;;;4976683;28;20198;-89
2024/03/25 06:20:47;;;;;;;1.67;1.60;;;5.40;97.30;;;;;;4975817;28;20285;-92
2024/03/25 06:23:22;;;;;;;6.73;1.00;;;5.40;97.30;;;;;;4976251;28;20525;-90
2024/03/25 06:25:52;;;;;;;1.00;0.90;;;5.40;97.30;;;;;;4977520;28;20762;-88
2024/03/25 06:28:21;;;;;;;0.90;0.80;;;5.50;97.30;;;;;;4973297;28;20428;-90
2024/03/25 06:36:53;;;;;;;1.00;0.90;;;5.50;97.30;;;;;;4978118;28;20516;-91
2024/03/25 06:39:21;;;;;;;0.90;0.80;;;5.50;97.30;;;;;;4986652;28;20452;-90
2024/03/25 06:42:01;;;;;;;1.33;1.23;;;5.50;97.30;;;;;;4959630;28;20806;-89
2024/03/25 06:44:31;;;;;;;0.90;0.80;;;5.50;97.30;;;;;;4955432;28;20425;-89
2024/03/25 06:47:13;;;;;;;1.00;0.90;;;5.50;97.30;;;;;;4976578;28;20418;-90
2024/03/25 06:49:41;;;;;;;0.87;0.77;;;5.60;97.30;;;;;;4976259;28;21075;-89
2024/03/25 06:52:10;;;;;;;1.00;0.90;;;5.60;97.30;;;;;;4975276;28;20438;-89
2024/03/25 06:54:42;;;;;;;1.60;1.33;;;5.60;97.30;;;;;;4975318;28;20442;-92
2024/03/25 06:57:10;;;;;;;1.23;1.13;;;5.70;97.30;;;;;;4976906;28;20426;-90
2024/03/25 06:59:43;;;;;;;1.10;1.00;;;5.70;97.30;;;;;;4975205;28;20434;-90
2024/03/25 07:02:12;;;;;;;2.07;1.93;;;5.80;97.30;;;;;;4974581;28;20465;-88
2024/03/25 07:04:39;;;;;;;1.10;1.00;;;5.80;97.30;;;;;;4975181;28;20500;-91
2024/03/25 07:07:05;;;;;;;1.67;1.57;;;5.90;97.30;;;;;;4974759;28;20815;-89
2024/03/25 07:09:30;;;;;;;1.43;1.40;;;6.00;97.30;;;;;;4974686;28;20426;-89
2024/03/25 07:11:56;;;;;;;1.00;0.90;;;6.00;97.30;;;;;;4975122;28;20194;-91
2024/03/25 07:14:21;;;;;;;1.10;1.00;;;6.00;97.30;;;;;;4974806;28;20199;-89
2024/03/25 07:16:47;;;;;;;0.80;0.70;;;6.00;97.30;;;;;;4974903;28;20209;-90
2024/03/25 07:19:12;;;;;;;1.20;1.10;;;6.10;97.30;;;;;;4974663;28;20185;-89
2024/03/25 07:21:38;;;;;;;1.27;1.17;;;6.20;97.30;;;;;;4974475;28;20811;-91
2024/03/25 07:24:04;;;;;;;1.10;1.00;;;6.20;97.30;;;;;;4974701;28;20403;-91
2024/03/25 07:26:29;;;;;;;1.10;1.00;;;6.20;97.30;;;;;;4975432;28;20240;-89
2024/03/25 07:28:55;;;;;;;1.00;0.90;;;6.20;97.30;;;;;;4974516;28;20238;-88
2024/03/25 07:31:20;;;;;;;1.10;1.00;;;6.20;97.30;;;;;;4975364;28;20435;-92
2024/03/25 07:33:51;;;;;;;0.90;0.80;;;6.20;97.30;;;;;;4974428;28;20509;-90
2024/03/25 07:36:17;;;;;;;1.20;1.00;;;6.20;97.30;;;;;;4974293;28;20179;-90
2024/03/25 07:38:42;;;;;;;0.90;0.80;;;6.20;97.30;;;;;;4974348;28;20461;-89
2024/03/25 07:41:08;;;;;;;0.90;0.80;;;6.30;97.30;;;;;;4970066;28;20480;-91
2024/03/25 07:43:34;;;;;;;0.90;0.80;;;6.40;97.30;;;;;;4974588;28;20178;-89
2024/03/25 07:45:59;;;;;;;22.67;2.00;;;6.50;97.30;;;;;;4974560;28;20530;-90
2024/03/25 07:48:25;;;;;;;1.20;1.10;;;6.50;97.30;;;;;;4975325;28;20224;-92
2024/03/25 07:50:51;;;;;;;1.00;0.90;;;6.50;97.30;;;;;;4975297;28;20707;-88
2024/03/25 07:53:16;;;;;;;3.37;1.13;;;6.60;97.30;;;;;;4975128;28;20175;-90
2024/03/25 07:55:42;;;;;;;1.27;1.10;;;6.70;97.30;;;;;;4967531;28;20193;-90
2024/03/25 07:58:07;;;;;;;2.07;1.63;;;6.80;97.30;;;;;;4982249;28;20190;-90
2024/03/25 08:00:34;;;;;;;2.23;2.03;;;6.80;97.30;;;;;;4974083;28;20190;-90
2024/03/25 08:03:00;;;;;;;1.00;0.90;;;6.80;97.30;;;;;;4973658;28;20834;-90
2024/03/25 08:05:25;;;;;;;7.00;1.40;;;6.80;97.30;;;;;;4973112;28;20471;-89
2024/03/25 08:07:51;;;;;;;1.10;1.00;;;6.90;97.30;;;;;;4972570;28;20190;-89
2024/03/25 08:10:16;;;;;;;0.90;0.80;;;7.00;97.30;;;;;;4973722;28;20183;-90
2024/03/25 08:12:42;;;;;;;0.93;0.83;;;7.00;97.30;;;;;;4972996;28;20208;-90
2024/03/25 08:15:08;;;;;;;11.30;1.37;;;7.10;97.30;;;;;;4977159;28;20649;-89
2024/03/25 08:17:33;;;;;;;1.40;1.27;;;7.20;97.30;;;;;;4974062;28;20190;-88
2024/03/25 08:20:01;;;;;;;1.03;0.93;;;7.20;97.30;;;;;;4975070;28;20436;-90
2024/03/25 08:22:26;;;;;;;1.33;1.13;;;7.30;97.30;;;;;;4973598;28;20213;-90
2024/03/25 08:24:52;;;;;;;1.23;1.13;;;7.50;97.30;;;;;;4973086;28;20465;-90
2024/03/25 08:27:17;;;;;;;0.90;0.80;;;7.50;97.30;;;;;;4972894;28;20175;-92
2024/03/25 08:29:43;;;;;;;0.80;0.70;;;7.60;97.30;;;;;;4973707;28;20186;-89
2024/03/25 08:32:08;;;;;;;0.90;0.80;;;7.70;97.30;;;;;;4973172;28;20195;-89
2024/03/25 08:34:34;;;;;;;0.90;0.80;;;7.60;97.30;;;;;;4972220;28;20249;-87
2024/03/25 08:36:59;;;;;;;0.90;0.80;;;7.60;97.30;;;;;;4971620;28;20315;-89
2024/03/25 08:39:25;;;;;;;4.63;1.23;;;7.50;97.30;;;;;;4972877;28;20182;-89
2024/03/25 08:41:50;;;;;;;0.90;0.80;;;7.40;97.30;;;;;;4973121;28;20221;-88
2024/03/25 08:44:16;;;;;;;1.17;1.13;;;7.40;97.30;;;;;;4973144;28;20177;-89
2024/03/25 08:46:41;;;;;;;0.90;0.80;;;7.40;97.30;;;;;;4973479;28;20260;-89
2024/03/25 08:49:07;;;;;;;1.00;0.90;;;7.40;97.30;;;;;;4973556;28;20189;-90
2024/03/25 08:51:33;;;;;;;1.53;1.40;;;7.40;97.30;;;;;;4973087;28;20278;-89
2024/03/25 08:53:59;;;;;;;1.10;1.00;;;7.50;97.30;;;;;;4963226;28;20641;-89
2024/03/25 08:56:24;;;;;;;1.40;1.30;;;7.50;97.30;;;;;;4973382;28;20430;-89
2024/03/25 08:58:50;;;;;;;0.80;0.70;;;7.60;97.30;;;;;;4973492;28;20268;-89
2024/03/25 09:01:18;;;;;;;3.10;2.90;;;7.60;97.30;;;;;;4967860;28;20246;-89
2024/03/25 09:03:44;;;;;;;3.10;2.57;;;7.60;97.30;;;;;;4972886;28;20186;-90
2024/03/25 09:06:10;;;;;;;1.60;1.53;;;7.60;97.30;;;;;;4973377;28;20465;-90
2024/03/25 09:11:02;;;;;;;1.00;0.90;;;7.60;97.30;;;;;;4973999;28;20432;-91
2024/03/25 09:11:24;;;;;;;0.90;0.80;;;7.70;97.30;;;;;;4969231;28;20492;-88
2024/03/25 09:13:50;;;;;;;1.00;0.90;;;7.90;97.30;;;;;;4972962;28;20868;-92
2024/03/25 09:16:15;;;;;;;1.20;1.10;;;8.00;97.30;;;;;;4967948;28;20469;-90
2024/03/25 09:18:41;;;;;;;1.20;1.10;;;8.00;97.30;;;;;;4972470;28;20205;-89
2024/03/25 09:21:06;;;;;;;1.33;1.23;;;8.00;97.30;;;;;;4972708;28;20198;-91
2024/03/25 09:23:32;;;;;;;1.10;1.00;;;8.20;97.30;;;;;;4973193;28;20232;-90
2024/03/25 09:25:57;;;;;;;1.20;1.10;;;8.40;97.30;;;;;;4972963;28;20704;-90
2024/03/25 09:28:23;;;;;;;1.13;1.03;;;8.60;97.30;;;;;;4973087;28;20630;-88
2024/03/25 09:30:49;;;;;;;0.87;0.77;;;8.50;97.30;;;;;;4972137;28;20198;-89
2024/03/25 09:33:15;;;;;;;1.03;0.93;;;8.50;97.30;;;;;;4971822;28;20723;-89
2024/03/25 09:35:40;;;;;;;1.00;0.90;;;8.60;97.30;;;;;;4972567;28;20739;-90
2024/03/25 09:38:06;;;;;;;1.03;0.97;;;8.70;97.30;;;;;;4972581;28;20190;-89
2024/03/25 09:40:33;;;;;;;0.83;0.73;;;8.40;97.30;;;;;;4973952;28;20189;-91
2024/03/25 09:43:02;;;;;;;0.80;0.70;;;8.20;97.30;;;;;;4975033;28;20194;-90
2024/03/25 09:45:32;;;;;;;1.53;1.23;;;8.00;97.30;;;;;;4973537;28;20458;-90
2024/03/25 09:47:58;;;;;;;0.80;0.70;;;8.30;97.30;;;;;;4973161;28;20768;-89
2024/03/25 09:50:23;;;;;;;0.90;0.80;;;8.70;97.30;;;;;;4961242;28;20433;-90
2024/03/25 09:52:49;;;;;;;0.93;0.83;;;8.90;97.30;;;;;;4976353;28;20640;-89
2024/03/25 09:55:15;;;;;;;0.90;0.80;;;9.00;97.30;;;;;;4976398;28;20272;-89
2024/03/25 09:57:42;;;;;;;0.90;0.80;;;9.10;97.30;;;;;;4976792;28;20422;-90
2024/03/25 10:00:10;;;;;;;1.83;1.60;;;9.30;97.30;;;;;;4976083;28;20453;-89
2024/03/25 10:02:38;;;;;;;1.00;0.90;;;9.30;97.30;;;;;;4975878;28;21016;-89
2024/03/25 10:05:05;;;;;;;0.90;0.80;;;9.20;97.30;;;;;;4975549;28;20496;-90
2024/03/25 10:07:31;;;;;;;0.90;0.80;;;9.20;97.30;;;;;;4978448;28;20422;-91
2024/03/25 10:09:58;;;;;;;0.90;0.90;;;9.20;97.30;;;;;;4984278;28;20484;-90
2024/03/25 10:12:24;;;;;;;0.80;0.70;;;9.20;97.30;;;;;;4987382;28;20651;-91
2024/03/25 10:14:52;;;;;;;1.03;0.93;;;9.20;97.30;;;;;;4985550;28;20453;-96
2024/03/25 10:17:22;;;;;;;1.00;0.90;;;9.20;97.30;;;;;;4982622;28;20522;-91
2024/03/25 10:19:50;;;;;;;1.10;1.00;;;9.10;97.30;;;;;;4985055;28;20422;-88
2024/03/25 10:22:23;;;;;;;9.40;1.83;;;8.90;97.30;;;;;;4981629;28;20446;-90
2024/03/25 10:24:51;;;;;;;1.27;1.23;;;9.10;97.30;;;;;;4981424;28;20440;-90
2024/03/25 10:27:23;;;;;;;1.70;1.20;;;9.20;97.30;;;;;;4985677;28;20418;-90
2024/03/25 10:29:56;;;;;;;3.00;1.47;;;9.10;97.30;;;;;;4986049;28;20445;-89
2024/03/25 10:32:32;;;;;;;2.13;1.97;;;9.00;97.30;;;;;;4995599;28;20441;-90
2024/03/25 10:35:01;;;;;;;1.27;1.03;;;8.90;97.30;;;;;;4990776;28;20436;-91
2024/03/25 10:41:20;;;;;;;1.60;1.50;;;9.00;97.30;;;;;;4965715;28;21009;-91
2024/03/25 10:44:32;;;;;;;1.00;0.90;;;9.00;97.30;;;;;;4977168;28;20439;-90
2024/03/25 10:47:10;;;;;;;1.73;1.63;;;9.00;97.30;;;;;;4929942;28;20469;-90
2024/03/25 10:50:13;;;;;;;1.03;1.00;;;8.90;97.30;;;;;;4975550;28;20429;-90
2024/03/25 10:52:42;;;;;;;1.00;0.90;;;9.00;97.30;;;;;;4971618;28;20445;-90
2024/03/25 10:55:12;;;;;;;0.90;0.80;;;8.90;97.10;;;;;;4977094;28;20419;-90
2024/03/25 10:57:41;;;;;;;2.00;1.10;;;8.90;96.80;;;;;;4975967;28;20422;-89
2024/03/25 11:00:33;;;;;;;0.90;0.80;;;8.90;97.30;;;;;;4974587;28;20464;-92
2024/03/25 11:03:23;;;;;;;1.00;0.90;;;9.30;97.30;;;;;;4976511;28;20500;-90
2024/03/25 11:06:01;;;;;;;1.00;0.90;;;9.70;95.00;;;;;;4975833;28;20509;-91
2024/03/25 11:08:32;;;;;;;0.87;0.77;;;9.80;94.40;;;;;;4954773;28;20472;-90
2024/03/25 11:11:01;;;;;;;0.90;0.80;;;9.40;94.80;;;;;;4976154;28;20453;-89
2024/03/25 11:13:31;;;;;;;0.90;0.80;;;9.30;95.40;;;;;;4974676;28;20433;-90
2024/03/25 11:16:01;;;;;;;0.90;0.80;;;9.40;96.70;;;;;;4975301;28;20822;-89
2024/03/25 11:19:03;;;;;;;1.43;1.40;;;9.30;96.50;;;;;;4974877;28;20426;-90
2024/03/25 11:21:32;;;;;;;0.93;0.83;;;9.20;96.70;;;;;;4969656;28;20457;-90
2024/03/25 11:25:11;;;;;;;1.37;1.20;;;9.20;96.70;;;;;;4975194;28;20437;-89
2024/03/25 11:27:34;;;;;;;1.00;0.90;;;9.20;95.70;;;;;;4966279;28;20512;-90
2024/03/25 11:30:03;;;;;;;0.90;0.80;;;9.20;96.60;;;;;;4975042;28;20425;-89
2024/03/25 11:36:00;;;;;;;0.90;0.80;;;9.20;96.10;;;;;;4963322;28;20441;-89
2024/03/25 11:39:32;;;;;;;0.90;0.80;;;9.30;94.60;;;;;;4953372;28;20442;-89
2024/03/25 11:42:31;;;;;;;0.90;0.80;;;9.50;94.50;;;;;;4934959;28;20798;-88
2024/03/25 11:45:20;;;;;;;0.90;0.80;;;9.60;93.10;;;;;;4974434;28;20492;-88
2024/03/25 11:48:21;;;;;;;1.00;0.90;;;9.80;93.50;;;;;;4974898;28;20438;-90
2024/03/25 11:50:53;;;;;;;1.00;0.90;;;9.80;93.10;;;;;;4965458;28;20465;-89
2024/03/25 11:53:21;;;;;;;0.90;0.80;;;9.80;94.20;;;;;;4951445;28;20505;-91
2024/03/25 11:55:53;;;;;;;1.27;1.17;;;9.80;94.60;;;;;;4976122;28;20433;-89
2024/03/25 11:58:23;;;;;;;1.00;0.90;;;9.60;94.70;;;;;;4976693;28;20505;-90
2024/03/25 12:00:53;;;;;;;1.10;1.00;;;9.60;95.20;;;;;;4991842;28;20445;-91
2024/03/25 12:03:22;;;;;;;3.40;1.73;;;9.60;95.80;;;;;;4972305;28;20916;-91
2024/03/25 12:06:23;;;;;;;1.00;0.90;;;10.00;95.80;;;;;;4973773;28;20454;-88
2024/03/25 12:12:22;;;;;;;0.80;0.70;;;10.00;95.30;;;;;;4974580;28;20444;-88
2024/03/25 12:14:52;;;;;;;0.90;0.80;;;10.10;94.00;;;;;;4975314;28;20422;-88
2024/03/25 12:17:23;;;;;;;0.90;0.80;;;9.90;93.80;;;;;;4966232;28;20450;-88
2024/03/25 12:20:32;;;;;;;1.00;1.00;;;9.70;94.60;;;;;;4974039;28;20477;-89
2024/03/25 12:23:31;;;;;;;4.53;1.37;;;9.70;94.80;;;;;;4987170;28;20974;-89
2024/03/25 12:26:14;;;;;;;1.93;1.10;;;9.90;94.00;;;;;;4973694;28;20473;-89
2024/03/25 12:28:42;;;;;;;2.93;2.40;;;9.70;94.20;;;;;;4914319;28;20426;-88
2024/03/25 12:31:23;;;;;;;2.47;2.30;;;9.80;95.00;;;;;;4973634;28;20441;-90
2024/03/25 12:34:13;;;;;;;1.10;1.00;;;9.80;94.70;;;;;;4957965;28;20429;-89
2024/03/25 12:36:44;;;;;;;1.70;0.80;;;9.60;94.50;;;;;;4974063;28;20437;-90
2024/03/25 12:39:54;;;;;;;1.00;0.90;;;9.40;95.30;;;;;;4973863;28;20430;-89
2024/03/25 12:42:22;;;;;;;1.10;1.00;;;9.50;95.60;;;;;;4929219;28;20449;-90
2024/03/25 12:45:03;;;;;;;1.10;1.00;;;9.50;95.10;;;;;;4973485;28;20433;-89
2024/03/25 12:48:23;;;;;;;;;;;;;;;;;;;;;
2024/03/25 12:51:42;;;;;;;1.10;1.00;;;9.50;95.60;;;;;;4974599;28;20438;-89
2024/03/25 12:54:15;;;;;;;9.57;1.97;;;9.60;95.30;;;;;;4972357;28;20484;-89
2024/03/25 12:56:42;;;;;;;1.00;0.90;;;9.80;94.60;;;;;;4973289;28;20440;-90
2024/03/25 12:59:08;;;;;;;1.07;0.97;;;10.00;94.30;;;;;;4973297;28;20457;-90
2024/03/25 13:01:33;;;;;;;1.33;0.90;;;10.10;94.30;;;;;;4972883;28;20824;-88
2024/03/25 13:03:59;;;;;;;5.43;1.20;;;10.10;93.90;;;;;;4980221;28;20196;-89
2024/03/25 13:06:27;;;;;;;1.00;0.90;;;10.20;93.70;;;;;;4972217;28;20226;-87
2024/03/25 13:08:53;;;;;;;1.23;1.13;;;10.70;91.50;;;;;;4971702;28;20500;-89
2024/03/25 13:11:19;;;;;;;0.93;0.80;;;11.10;90.30;;;;;;4964898;28;20811;-89
2024/03/25 13:13:46;;;;;;;1.17;0.97;;;12.00;88.60;;;;;;4971826;28;20603;-89
2024/03/25 13:16:11;;;;;;;0.90;0.80;;;12.50;87.90;;;;;;4963285;28;20440;-89
2024/03/25 13:18:37;;;;;;;1.10;1.00;;;13.20;85.90;;;;;;4972187;28;20940;-88
2024/03/25 13:21:03;;;;;;;1.00;0.90;;;13.30;83.70;;;;;;4972212;28;20460;-89
2024/03/25 13:23:29;;;;;;;1.13;1.10;;;12.90;84.30;;;;;;4972496;28;20198;-89
2024/03/25 13:25:57;;;;;;;1.97;1.50;;;12.90;85.40;;;;;;4975758;28;20462;-89
2024/03/25 13:28:23;;;;;;;0.90;0.80;;;12.90;84.50;;;;;;4976016;28;20413;-90
2024/03/25 13:30:49;;;;;;;1.23;1.13;;;12.80;84.80;;;;;;4975954;28;21007;-89
2024/03/25 13:33:14;;;;;;;1.20;1.10;;;12.50;86.00;;;;;;4975617;28;20192;-89
2024/03/25 13:35:40;;;;;;;1.00;0.90;;;13.00;86.20;;;;;;4975938;28;20178;-89
2024/03/25 13:38:06;;;;;;;1.10;1.00;;;13.00;85.00;;;;;;4975473;28;20179;-89
2024/03/25 13:40:32;;;;;;;1.00;0.90;;;12.50;85.10;;;;;;4975703;28;20429;-90
2024/03/25 13:42:58;;;;;;;1.00;0.90;;;11.90;86.10;;;;;;4976018;28;20425;-90
2024/03/25 13:45:24;;;;;;;0.70;0.70;;;11.70;87.40;;;;;;4976385;28;20206;-91
2024/03/25 13:47:50;;;;;;;1.00;0.90;;;11.10;88.70;;;;;;4976144;28;20497;-89
2024/03/25 13:50:15;;;;;;;0.90;0.80;;;10.80;89.50;;;;;;4975584;28;20178;-89
2024/03/25 13:52:41;;;;;;;1.20;1.10;;;10.60;89.60;;;;;;4976256;28;20233;-88
2024/03/25 13:55:07;;;;;;;2.37;2.17;;;10.50;89.70;;;;;;4976103;28;20190;-89
2024/03/25 13:57:33;;;;;;;0.90;0.80;;;10.10;89.30;;;;;;4976168;28;20438;-88
2024/03/25 14:00:08;;;;;;;1.00;0.90;;;9.90;90.40;;;;;;4975935;28;20506;-90
2024/03/25 14:02:35;;;;;;;1.03;0.93;;;9.90;92.10;;;;;;4993902;23;20781;-84
2024/03/25 14:05:01;;;;;;;0.90;0.80;;;10.00;93.00;;;;;;4982272;28;20465;-83
2024/03/25 14:07:27;;;;;;;0.87;0.80;;;10.30;93.20;;;;;;4977856;28;20424;-84
2024/03/25 14:09:53;;;;;;;0.90;0.80;;;10.40;93.20;;;;;;4976910;28;20277;-83
2024/03/25 14:12:20;;;;;;;1.10;1.00;;;10.50;93.30;;;;;;4972385;28;20207;-83
2024/03/25 14:14:46;;;;;;;4.20;1.63;;;10.50;90.70;;;;;;4954641;29;20799;-84
2024/03/25 14:17:11;;;;;;;0.90;0.80;;;10.50;91.20;;;;;;4960966;28;20439;-83
2024/03/25 14:19:37;;;;;;;1.17;1.07;;;10.40;91.20;;;;;;4954470;29;20271;-83
2024/03/25 14:22:02;;;;;;;4.10;0.97;;;10.60;90.40;;;;;;4961341;28;20704;-83
2024/03/25 14:24:28;;;;;;;0.90;0.80;;;10.50;89.20;;;;;;4958129;28;20187;-84
2024/03/25 14:26:53;;;;;;;1.47;1.00;;;10.70;88.60;;;;;;4962512;28;20282;-83
2024/03/25 14:29:19;;;;;;;0.90;0.80;;;11.10;89.90;;;;;;4957184;28;20239;-84
2024/03/25 14:31:44;;;;;;;0.90;0.83;;;11.20;88.90;;;;;;4965201;28;20199;-83
2024/03/25 14:34:10;;;;;;;0.80;0.70;;;11.20;88.00;;;;;;4960606;28;20269;-84
2024/03/25 14:36:35;;;;;;;1.20;1.10;;;10.90;86.70;;;;;;4961371;28;20191;-83
2024/03/25 14:39:01;;;;;;;0.87;0.80;;;10.60;87.70;;;;;;4953637;28;20179;-84
2024/03/25 14:41:26;;;;;;;1.00;0.90;;;10.50;88.30;;;;;;4960865;28;20183;-84
2024/03/25 14:43:52;;;;;;;0.90;0.80;;;10.40;88.20;;;;;;4960317;28;20723;-84
2024/03/25 14:46:18;;;;;;;0.90;0.80;;;10.40;88.50;;;;;;4963950;28;20207;-84
2024/03/25 14:48:44;;;;;;;1.00;0.90;;;10.20;88.30;;;;;;4964876;28;20657;-83
2024/03/25 14:51:09;;;;;;;1.93;1.63;;;10.20;89.60;;;;;;4960417;28;20266;-84
2024/03/25 14:53:35;;;;;;;1.53;0.93;;;10.30;90.10;;;;;;4953455;28;20538;-84
2024/03/25 14:56:00;;;;;;;1.20;1.10;;;10.30;89.20;;;;;;4960641;28;20657;-84
2024/03/25 14:58:26;;;;;;;1.00;0.90;;;10.30;88.30;;;;;;4963323;28;20201;-84
2024/03/25 15:00:51;;;;;;;1.33;1.23;;;10.30;88.70;;;;;;4963897;28;20270;-83
2024/03/25 15:03:17;;;;;;;1.10;1.00;;;10.40;86.90;;;;;;4974740;28;20735;-84
2024/03/25 15:05:42;;;;;;;1.90;1.83;;;10.30;85.80;;;;;;4963308;28;20217;-83
2024/03/25 15:08:08;;;;;;;1.20;1.10;;;10.40;86.00;;;;;;4969472;28;20174;-84
2024/03/25 15:10:34;;;;;;;1.47;1.37;;;10.60;87.00;;;;;;4956705;28;20254;-83
2024/03/25 15:13:00;;;;;;;1.17;1.07;;;11.80;85.70;;;;;;4969774;28;20209;-83
2024/03/25 15:15:25;;;;;;;2.03;1.30;;;13.10;82.20;;;;;;4963007;28;20418;-83
2024/03/25 15:17:51;;;;;;;1.77;1.73;;;13.30;78.90;;;;;;4961324;28;20183;-83
2024/03/25 15:20:16;;;;;;;1.47;1.13;;;13.30;78.60;;;;;;4958119;28;20197;-83
2024/03/25 15:22:43;;;;;;;1.10;1.00;;;12.60;79.70;;;;;;4972911;28;20216;-83
2024/03/25 15:25:11;;;;;;;1.40;1.30;;;12.00;81.80;;;;;;4981809;28;20202;-82
2024/03/25 15:27:37;;;;;;;1.00;0.90;;;11.60;82.50;;;;;;4971695;28;20414;-83
2024/03/25 15:30:05;;;;;;;0.80;0.70;;;11.30;82.60;;;;;;4956026;28;20998;-83
2024/03/25 15:32:31;;;;;;;5.50;2.10;;;11.00;83.80;;;;;;4956992;28;20206;-84
2024/03/25 15:34:56;;;;;;;1.10;1.00;;;10.70;84.60;;;;;;4962569;28;20421;-83
2024/03/25 15:37:23;;;;;;;1.10;1.00;;;10.60;85.60;;;;;;4969343;28;20186;-83
2024/03/25 15:39:49;;;;;;;0.90;0.80;;;10.50;84.80;;;;;;4961968;28;20553;-84
2024/03/25 15:42:15;;;;;;;5.77;2.10;;;10.50;85.00;;;;;;4962504;28;20434;-83
2024/03/25 15:44:40;;;;;;;1.00;0.90;;;10.60;84.60;;;;;;4962368;28;20513;-84
2024/03/25 15:47:06;;;;;;;1.13;1.03;;;10.60;84.60;;;;;;4961980;28;20201;-84
2024/03/25 15:49:32;;;;;;;0.90;0.80;;;10.80;85.00;;;;;;4967874;28;20182;-83
2024/03/25 15:51:57;;;;;;;1.07;1.00;;;11.80;84.50;;;;;;4987094;28;20201;-83
2024/03/25 15:54:23;;;;;;;1.00;0.90;;;12.00;82.50;;;;;;4958822;28;20418;-83
2024/03/25 15:56:48;;;;;;;1.10;1.00;;;11.70;82.00;;;;;;4965798;28;20186;-83
2024/03/25 15:59:15;;;;;;;2.30;0.90;;;11.40;82.70;;;;;;4976992;28;20187;-84
2024/03/25 16:01:40;;;;;;;1.87;1.20;;;11.10;83.90;;;;;;4970387;28;20252;-84
2024/03/25 16:04:06;;;;;;;1.13;1.03;;;10.90;85.20;;;;;;4970564;28;20418;-84
2024/03/25 16:06:31;;;;;;;1.70;1.60;;;10.80;86.40;;;;;;5000308;28;20228;-83
2024/03/25 16:08:58;;;;;;;0.80;0.80;;;10.70;87.20;;;;;;4969792;28;20204;-84
2024/03/25 16:11:24;;;;;;;1.27;1.17;;;11.10;87.70;;;;;;4988031;28;20182;-83
2024/03/25 16:13:51;;;;;;;1.20;1.10;;;11.70;86.50;;;;;;4959862;28;20476;-83
2024/03/25 16:16:16;;;;;;;0.97;0.87;;;11.90;84.90;;;;;;4969320;28;20186;-83
2024/03/25 16:18:42;;;;;;;1.30;1.20;;;12.10;84.10;;;;;;4971191;28;20413;-83
2024/03/25 16:21:15;;;;;;;2.00;1.33;;;12.40;83.40;;;;;;4956708;28;20221;-83
2024/03/25 16:23:42;;;;;;;1.20;1.10;;;12.90;81.60;;;;;;4964828;28;20572;-83
2024/03/25 16:26:07;;;;;;;1.53;1.43;;;13.10;80.80;;;;;;4968556;28;20468;-84
2024/03/25 16:28:33;;;;;;;1.00;0.90;;;12.90;80.40;;;;;;4965158;28;20421;-83
2024/03/25 16:31:00;;;;;;;1.20;1.10;;;12.40;81.00;;;;;;4989558;28;20190;-84
2024/03/25 16:33:26;;;;;;;1.27;1.17;;;11.80;83.00;;;;;;4975637;28;20259;-85
2024/03/25 16:35:51;;;;;;;0.90;0.80;;;11.40;83.00;;;;;;4954601;28;21026;-84
2024/03/25 16:38:17;;;;;;;1.43;1.20;;;11.10;84.50;;;;;;4966682;28;20218;-84
2024/03/25 16:40:42;;;;;;;0.93;0.87;;;10.80;85.20;;;;;;4982641;28;20185;-84
2024/03/25 16:43:08;;;;;;;15.60;1.43;;;10.50;84.80;;;;;;4973271;28;20297;-84
2024/03/25 16:45:33;;;;;;;1.10;1.00;;;10.70;86.10;;;;;;4960727;28;20210;-84
2024/03/25 16:48:00;;;;;;;1.40;1.30;;;11.40;85.70;;;;;;4960544;28;20189;-84
2024/03/25 16:50:27;;;;;;;1.23;1.13;;;12.40;83.60;;;;;;4968479;28;20182;-85
2024/03/25 16:52:53;;;;;;;3.43;1.50;;;13.00;81.50;;;;;;4963696;28;20450;-85
2024/03/25 16:55:18;;;;;;;3.33;2.20;;;13.30;80.50;;;;;;4959266;28;21012;-84
2024/03/25 16:57:44;;;;;;;1.10;1.00;;;13.50;80.50;;;;;;4964054;28;20185;-84
2024/03/25 17:00:11;;;;;;;2.03;1.17;;;13.70;80.20;;;;;;4959701;28;20539;-85
2024/03/25 17:02:37;;;;;;;19.87;2.07;;;13.90;79.60;;;;;;4954421;28;20226;-84
2024/03/25 17:05:04;;;;;;;1.00;0.90;;;13.70;79.80;;;;;;4959256;28;20421;-85
2024/03/25 17:07:30;;;;;;;1.30;1.20;;;13.60;80.30;;;;;;4977687;28;20189;-85
2024/03/25 17:09:55;;;;;;;1.20;1.10;;;13.40;80.40;;;;;;4962546;28;20421;-84
2024/03/25 17:12:21;;;;;;;1.60;1.50;;;13.00;81.30;;;;;;4952860;28;20199;-85
2024/03/25 17:14:46;;;;;;;1.03;0.97;;;12.40;83.00;;;;;;4954059;28;20183;-84
2024/03/25 17:17:12;;;;;;;2.60;1.20;;;11.60;84.40;;;;;;4975287;28;20186;-86
2024/03/25 17:19:37;;;;;;;1.17;1.10;;;11.00;86.10;;;;;;4973932;28;20189;-86
2024/03/25 17:22:04;;;;;;;1.40;1.23;;;10.60;87.40;;;;;;4985854;28;20201;-85
2024/03/25 17:24:29;;;;;;;0.90;0.90;;;10.10;89.50;;;;;;4974487;28;20748;-85
2024/03/25 17:26:55;;;;;;;2.90;2.70;;;9.80;90.90;;;;;;4980454;28;20565;-85
2024/03/25 17:29:20;;;;;;;1.10;1.00;;;9.60;92.00;;;;;;4980178;28;20170;-85
2024/03/25 17:31:48;;;;;;;1.20;1.10;;;9.30;92.80;;;;;;4974633;28;20198;-85
2024/03/25 17:34:14;;;;;;;1.00;0.90;;;9.10;93.90;;;;;;4981024;28;20238;-84
2024/03/25 17:36:39;;;;;;;0.90;0.80;;;8.90;94.50;;;;;;4976350;28;20426;-85
2024/03/25 17:39:05;;;;;;;1.47;1.10;;;8.80;95.10;;;;;;4982487;28;20186;-85
2024/03/25 17:41:31;;;;;;;4.60;2.57;;;8.60;95.90;;;;;;4980177;28;20194;-85
2024/03/25 17:43:57;;;;;;;0.90;0.80;;;8.50;96.60;;;;;;4975011;28;20183;-85
2024/03/25 17:46:22;;;;;;;1.10;1.00;;;8.30;97.30;;;;;;4997995;28;20485;-85
2024/03/25 17:48:51;;;;;;;2.30;1.63;;;8.30;97.30;;;;;;4983244;28;20225;-85
2024/03/25 17:51:17;;;;;;;1.73;1.70;;;8.20;97.30;;;;;;4980009;28;20441;-85
2024/03/25 17:53:42;;;;;;;0.90;0.80;;;8.00;97.30;;;;;;4973393;28;20521;-85
2024/03/25 17:56:08;;;;;;;1.07;0.97;;;7.90;97.30;;;;;;4964863;28;20445;-84
2024/03/25 17:58:34;;;;;;;1.20;1.10;;;7.80;97.30;;;;;;4964457;28;20374;-85
2024/03/25 18:00:59;;;;;;;1.17;1.07;;;7.70;97.30;;;;;;4957269;28;20277;-85
2024/03/25 18:03:25;;;;;;;1.20;1.10;;;7.60;97.30;;;;;;4963518;28;20234;-85
2024/03/25 18:05:50;;;;;;;1.00;0.90;;;7.50;97.30;;;;;;4975865;28;20351;-85
2024/03/25 18:08:17;;;;;;;1.43;1.33;;;7.40;97.30;;;;;;4959054;28;20587;-84
2024/03/25 18:10:42;;;;;;;7.90;1.07;;;7.30;97.30;;;;;;4964584;28;20652;-85
2024/03/25 18:13:14;;;;;;;1.40;1.30;;;7.20;97.30;;;;;;4967678;28;20475;-85
2024/03/25 18:15:46;;;;;;;1.30;1.20;;;7.10;97.30;;;;;;4976378;28;20306;-84
2024/03/25 18:18:12;;;;;;;1.30;1.20;;;7.00;97.30;;;;;;4969763;28;20489;-84
2024/03/25 18:20:37;;;;;;;1.63;1.53;;;6.90;97.30;;;;;;4950963;28;20819;-84